Terminal Aerodrome Forecast
Issued by NWS

Home | Current Version | Previous Version | Text Only | Print | Product List | Glossary On
Versions: 1 2 3 4 5 6 7 8 9 10 11 12
000
FTUS43 KJKL 061120
TAFSJS
TAF
KSJS 061120Z 0612/0712 00000KT P6SM FEW100
     FM061600 VRB06KT P6SM BKN060
     FM070200 VRB03KT P6SM FEW100=

USA.gov is the U.S. government's official web portal to all federal, state and local government web resources and services.